sensor_id;sensor_type;location;lat;lon;timestamp;P1;durP1;ratioP1;P2;durP2;ratioP2
8058;SDS011;4072;42.668;23.396;2023-05-17T00:00:06;9.30;;;6.60;;
8058;SDS011;4072;42.668;23.396;2023-05-17T00:02:35;10.00;;;6.10;;
8058;SDS011;4072;42.668;23.396;2023-05-17T00:05:04;10.53;;;6.50;;
8058;SDS011;4072;42.668;23.396;2023-05-17T00:07:32;14.40;;;6.60;;
8058;SDS011;4072;42.668;23.396;2023-05-17T00:10:00;10.57;;;6.23;;
8058;SDS011;4072;42.668;23.396;2023-05-17T00:12:30;12.93;;;6.77;;
8058;SDS011;4072;42.668;23.396;2023-05-17T00:14:58;11.40;;;6.43;;
8058;SDS011;4072;42.668;23.396;2023-05-17T00:17:26;12.90;;;6.33;;
8058;SDS011;4072;42.668;23.396;2023-05-17T00:19:54;13.43;;;6.93;;
8058;SDS011;4072;42.668;23.396;2023-05-17T00:22:22;9.23;;;7.07;;
8058;SDS011;4072;42.668;23.396;2023-05-17T00:24:50;10.33;;;6.43;;
8058;SDS011;4072;42.668;23.396;2023-05-17T00:27:18;11.17;;;6.20;;
8058;SDS011;4072;42.668;23.396;2023-05-17T00:29:47;13.47;;;6.50;;
8058;SDS011;4072;42.668;23.396;2023-05-17T00:32:15;10.70;;;6.20;;
8058;SDS011;4072;42.668;23.396;2023-05-17T00:34:44;12.10;;;7.60;;
8058;SDS011;4072;42.668;23.396;2023-05-17T00:37:12;11.80;;;7.90;;
8058;SDS011;4072;42.668;23.396;2023-05-17T00:39:40;15.83;;;6.60;;
8058;SDS011;4072;42.668;23.396;2023-05-17T00:42:08;16.10;;;7.50;;
8058;SDS011;4072;42.668;23.396;2023-05-17T00:44:38;12.30;;;7.37;;
8058;SDS011;4072;42.668;23.396;2023-05-17T00:47:08;13.80;;;7.60;;
8058;SDS011;4072;42.668;23.396;2023-05-17T00:49:36;9.27;;;7.43;;
8058;SDS011;4072;42.668;23.396;2023-05-17T00:52:04;11.83;;;6.73;;
8058;SDS011;4072;42.668;23.396;2023-05-17T00:54:32;13.23;;;7.37;;
8058;SDS011;4072;42.668;23.396;2023-05-17T00:57:01;14.80;;;7.30;;
8058;SDS011;4072;42.668;23.396;2023-05-17T00:59:30;13.33;;;7.77;;
8058;SDS011;4072;42.668;23.396;2023-05-17T01:01:58;12.70;;;7.43;;
8058;SDS011;4072;42.668;23.396;2023-05-17T01:04:28;13.30;;;7.43;;
8058;SDS011;4072;42.668;23.396;2023-05-17T01:06:56;12.33;;;7.40;;
8058;SDS011;4072;42.668;23.396;2023-05-17T01:09:25;13.43;;;7.80;;
8058;SDS011;4072;42.668;23.396;2023-05-17T01:12:01;12.17;;;6.43;;
8058;SDS011;4072;42.668;23.396;2023-05-17T01:14:37;12.67;;;6.50;;
8058;SDS011;4072;42.668;23.396;2023-05-17T01:17:15;10.20;;;6.57;;
8058;SDS011;4072;42.668;23.396;2023-05-17T01:19:51;10.17;;;6.30;;
8058;SDS011;4072;42.668;23.396;2023-05-17T01:22:26;12.73;;;6.43;;
8058;SDS011;4072;42.668;23.396;2023-05-17T01:25:15;13.53;;;7.20;;
8058;SDS011;4072;42.668;23.396;2023-05-17T01:27:57;11.80;;;6.30;;
8058;SDS011;4072;42.668;23.396;2023-05-17T01:30:28;10.67;;;5.57;;
8058;SDS011;4072;42.668;23.396;2023-05-17T01:32:56;9.47;;;5.73;;
8058;SDS011;4072;42.668;23.396;2023-05-17T01:35:26;12.53;;;6.00;;
8058;SDS011;4072;42.668;23.396;2023-05-17T01:37:55;12.13;;;4.67;;
8058;SDS011;4072;42.668;23.396;2023-05-17T01:40:23;8.33;;;4.77;;
8058;SDS011;4072;42.668;23.396;2023-05-17T01:42:52;10.33;;;5.33;;
8058;SDS011;4072;42.668;23.396;2023-05-17T01:45:25;10.93;;;4.90;;
8058;SDS011;4072;42.668;23.396;2023-05-17T01:48:01;10.17;;;5.50;;
8058;SDS011;4072;42.668;23.396;2023-05-17T01:50:39;10.73;;;5.30;;
8058;SDS011;4072;42.668;23.396;2023-05-17T01:53:09;11.60;;;5.47;;
8058;SDS011;4072;42.668;23.396;2023-05-17T01:55:42;11.03;;;5.37;;
8058;SDS011;4072;42.668;23.396;2023-05-17T01:58:15;13.73;;;5.57;;
8058;SDS011;4072;42.668;23.396;2023-05-17T02:00:48;12.10;;;6.27;;
8058;SDS011;4072;42.668;23.396;2023-05-17T02:03:18;8.00;;;5.40;;
8058;SDS011;4072;42.668;23.396;2023-05-17T02:05:47;9.57;;;5.60;;
8058;SDS011;4072;42.668;23.396;2023-05-17T02:08:15;10.70;;;5.47;;
8058;SDS011;4072;42.668;23.396;2023-05-17T02:10:43;11.73;;;5.87;;
8058;SDS011;4072;42.668;23.396;2023-05-17T02:13:11;10.73;;;6.50;;
8058;SDS011;4072;42.668;23.396;2023-05-17T02:15:39;9.60;;;6.03;;
8058;SDS011;4072;42.668;23.396;2023-05-17T02:18:08;10.07;;;5.53;;
8058;SDS011;4072;42.668;23.396;2023-05-17T02:20:37;10.43;;;6.17;;
8058;SDS011;4072;42.668;23.396;2023-05-17T02:23:05;10.27;;;5.90;;
8058;SDS011;4072;42.668;23.396;2023-05-17T02:25:33;10.63;;;6.03;;
8058;SDS011;4072;42.668;23.396;2023-05-17T02:28:01;10.00;;;6.50;;
8058;SDS011;4072;42.668;23.396;2023-05-17T02:30:29;11.27;;;6.00;;
8058;SDS011;4072;42.668;23.396;2023-05-17T02:32:57;9.83;;;5.10;;
8058;SDS011;4072;42.668;23.396;2023-05-17T02:35:27;10.80;;;6.17;;
8058;SDS011;4072;42.668;23.396;2023-05-17T02:37:55;9.53;;;5.97;;
8058;SDS011;4072;42.668;23.396;2023-05-17T02:40:23;13.13;;;6.17;;
8058;SDS011;4072;42.668;23.396;2023-05-17T02:42:51;12.37;;;6.90;;
8058;SDS011;4072;42.668;23.396;2023-05-17T02:45:19;16.10;;;7.47;;
8058;SDS011;4072;42.668;23.396;2023-05-17T02:47:47;11.67;;;7.43;;
8058;SDS011;4072;42.668;23.396;2023-05-17T02:50:15;10.93;;;6.93;;
8058;SDS011;4072;42.668;23.396;2023-05-17T02:52:45;12.17;;;6.90;;
8058;SDS011;4072;42.668;23.396;2023-05-17T02:55:13;11.60;;;7.00;;
8058;SDS011;4072;42.668;23.396;2023-05-17T02:57:41;10.03;;;6.97;;
8058;SDS011;4072;42.668;23.396;2023-05-17T03:00:09;12.60;;;7.73;;
8058;SDS011;4072;42.668;23.396;2023-05-17T03:02:37;16.93;;;8.50;;
8058;SDS011;4072;42.668;23.396;2023-05-17T03:05:06;13.07;;;7.17;;
8058;SDS011;4072;42.668;23.396;2023-05-17T03:07:35;9.90;;;5.80;;
8058;SDS011;4072;42.668;23.396;2023-05-17T03:10:05;12.23;;;7.30;;
8058;SDS011;4072;42.668;23.396;2023-05-17T03:12:33;17.53;;;8.20;;
8058;SDS011;4072;42.668;23.396;2023-05-17T03:15:01;17.17;;;9.00;;
8058;SDS011;4072;42.668;23.396;2023-05-17T03:17:30;14.37;;;8.73;;
8058;SDS011;4072;42.668;23.396;2023-05-17T03:19:58;14.23;;;10.23;;
8058;SDS011;4072;42.668;23.396;2023-05-17T03:22:26;14.60;;;9.57;;
8058;SDS011;4072;42.668;23.396;2023-05-17T03:24:54;16.67;;;10.80;;
8058;SDS011;4072;42.668;23.396;2023-05-17T03:27:24;19.83;;;9.57;;
8058;SDS011;4072;42.668;23.396;2023-05-17T03:29:52;12.03;;;10.17;;
8058;SDS011;4072;42.668;23.396;2023-05-17T03:32:20;12.10;;;9.37;;
8058;SDS011;4072;42.668;23.396;2023-05-17T03:34:48;18.33;;;11.63;;
8058;SDS011;4072;42.668;23.396;2023-05-17T03:37:16;15.20;;;11.17;;
8058;SDS011;4072;42.668;23.396;2023-05-17T03:39:44;16.97;;;10.93;;
8058;SDS011;4072;42.668;23.396;2023-05-17T03:42:12;15.97;;;11.33;;
8058;SDS011;4072;42.668;23.396;2023-05-17T03:44:42;18.70;;;14.07;;
8058;SDS011;4072;42.668;23.396;2023-05-17T03:47:09;15.47;;;12.70;;
8058;SDS011;4072;42.668;23.396;2023-05-17T03:49:37;16.27;;;13.90;;
8058;SDS011;4072;42.668;23.396;2023-05-17T03:52:05;18.77;;;14.23;;
8058;SDS011;4072;42.668;23.396;2023-05-17T03:54:33;20.73;;;16.50;;
8058;SDS011;4072;42.668;23.396;2023-05-17T03:57:01;16.73;;;15.03;;
8058;SDS011;4072;42.668;23.396;2023-05-17T03:59:29;20.83;;;15.27;;
8058;SDS011;4072;42.668;23.396;2023-05-17T04:01:59;21.30;;;15.47;;
8058;SDS011;4072;42.668;23.396;2023-05-17T04:04:27;19.60;;;15.17;;
8058;SDS011;4072;42.668;23.396;2023-05-17T04:06:55;19.83;;;15.93;;
8058;SDS011;4072;42.668;23.396;2023-05-17T04:09:23;17.97;;;16.07;;
8058;SDS011;4072;42.668;23.396;2023-05-17T04:11:51;21.00;;;17.73;;
8058;SDS011;4072;42.668;23.396;2023-05-17T04:14:19;22.57;;;17.97;;
8058;SDS011;4072;42.668;23.396;2023-05-17T04:16:47;21.23;;;17.17;;
8058;SDS011;4072;42.668;23.396;2023-05-17T04:19:17;23.53;;;17.73;;
8058;SDS011;4072;42.668;23.396;2023-05-17T04:21:45;18.30;;;16.50;;
8058;SDS011;4072;42.668;23.396;2023-05-17T04:24:13;22.47;;;17.47;;
8058;SDS011;4072;42.668;23.396;2023-05-17T04:26:41;21.17;;;17.07;;
8058;SDS011;4072;42.668;23.396;2023-05-17T04:29:09;26.73;;;16.93;;
8058;SDS011;4072;42.668;23.396;2023-05-17T04:31:37;26.10;;;16.70;;
8058;SDS011;4072;42.668;23.396;2023-05-17T04:34:05;20.27;;;17.07;;
8058;SDS011;4072;42.668;23.396;2023-05-17T04:36:35;21.57;;;17.00;;
8058;SDS011;4072;42.668;23.396;2023-05-17T04:39:03;21.13;;;15.83;;
8058;SDS011;4072;42.668;23.396;2023-05-17T04:41:31;21.23;;;16.30;;
8058;SDS011;4072;42.668;23.396;2023-05-17T04:43:59;19.37;;;15.47;;
8058;SDS011;4072;42.668;23.396;2023-05-17T04:46:27;24.00;;;15.83;;
8058;SDS011;4072;42.668;23.396;2023-05-17T04:48:55;19.17;;;14.87;;
8058;SDS011;4072;42.668;23.396;2023-05-17T04:51:23;15.37;;;13.77;;
8058;SDS011;4072;42.668;23.396;2023-05-17T04:53:53;17.70;;;14.13;;
8058;SDS011;4072;42.668;23.396;2023-05-17T04:56:21;17.80;;;15.30;;
8058;SDS011;4072;42.668;23.396;2023-05-17T04:58:49;14.30;;;12.80;;
8058;SDS011;4072;42.668;23.396;2023-05-17T05:01:18;17.40;;;14.80;;
8058;SDS011;4072;42.668;23.396;2023-05-17T05:03:47;18.90;;;15.27;;
8058;SDS011;4072;42.668;23.396;2023-05-17T05:06:15;19.67;;;14.63;;
8058;SDS011;4072;42.668;23.396;2023-05-17T05:08:43;21.73;;;16.07;;
8058;SDS011;4072;42.668;23.396;2023-05-17T05:11:12;20.50;;;16.13;;
8058;SDS011;4072;42.668;23.396;2023-05-17T05:13:40;19.33;;;14.07;;
8058;SDS011;4072;42.668;23.396;2023-05-17T05:16:08;17.47;;;14.40;;
8058;SDS011;4072;42.668;23.396;2023-05-17T05:18:37;15.30;;;12.80;;
8058;SDS011;4072;42.668;23.396;2023-05-17T05:21:05;14.93;;;12.87;;
8058;SDS011;4072;42.668;23.396;2023-05-17T05:23:33;13.13;;;11.83;;
8058;SDS011;4072;42.668;23.396;2023-05-17T05:26:01;18.10;;;11.33;;
8058;SDS011;4072;42.668;23.396;2023-05-17T05:28:31;19.03;;;11.97;;
8058;SDS011;4072;42.668;23.396;2023-05-17T05:30:59;14.90;;;11.03;;
8058;SDS011;4072;42.668;23.396;2023-05-17T05:33:28;16.40;;;12.77;;
8058;SDS011;4072;42.668;23.396;2023-05-17T05:35:57;17.80;;;13.00;;
8058;SDS011;4072;42.668;23.396;2023-05-17T05:38:25;14.77;;;11.27;;
8058;SDS011;4072;42.668;23.396;2023-05-17T05:40:53;19.07;;;13.20;;
8058;SDS011;4072;42.668;23.396;2023-05-17T05:43:21;18.83;;;11.60;;
8058;SDS011;4072;42.668;23.396;2023-05-17T05:45:50;17.43;;;11.80;;
8058;SDS011;4072;42.668;23.396;2023-05-17T05:48:18;17.17;;;11.53;;
8058;SDS011;4072;42.668;23.396;2023-05-17T05:50:46;13.57;;;10.60;;
8058;SDS011;4072;42.668;23.396;2023-05-17T05:53:14;14.93;;;11.87;;
8058;SDS011;4072;42.668;23.396;2023-05-17T05:55:45;14.13;;;10.27;;
8058;SDS011;4072;42.668;23.396;2023-05-17T05:58:13;14.20;;;9.87;;
8058;SDS011;4072;42.668;23.396;2023-05-17T06:00:41;15.00;;;9.60;;
8058;SDS011;4072;42.668;23.396;2023-05-17T06:03:10;15.87;;;9.93;;
8058;SDS011;4072;42.668;23.396;2023-05-17T06:05:38;14.80;;;10.90;;
8058;SDS011;4072;42.668;23.396;2023-05-17T06:08:06;15.87;;;11.80;;
8058;SDS011;4072;42.668;23.396;2023-05-17T06:10:34;14.73;;;11.13;;
8058;SDS011;4072;42.668;23.396;2023-05-17T06:13:02;17.13;;;11.40;;
8058;SDS011;4072;42.668;23.396;2023-05-17T06:15:30;15.43;;;10.43;;
8058;SDS011;4072;42.668;23.396;2023-05-17T06:17:59;15.63;;;9.73;;
8058;SDS011;4072;42.668;23.396;2023-05-17T06:20:28;16.37;;;11.00;;
8058;SDS011;4072;42.668;23.396;2023-05-17T06:22:57;14.13;;;10.47;;
8058;SDS011;4072;42.668;23.396;2023-05-17T06:25:25;14.03;;;10.53;;
8058;SDS011;4072;42.668;23.396;2023-05-17T06:27:53;12.67;;;10.07;;
8058;SDS011;4072;42.668;23.396;2023-05-17T06:30:21;13.10;;;10.60;;
8058;SDS011;4072;42.668;23.396;2023-05-17T06:32:49;15.43;;;10.93;;
8058;SDS011;4072;42.668;23.396;2023-05-17T06:35:17;13.17;;;9.87;;
8058;SDS011;4072;42.668;23.396;2023-05-17T06:37:47;15.97;;;9.80;;
8058;SDS011;4072;42.668;23.396;2023-05-17T06:40:15;12.17;;;10.43;;
8058;SDS011;4072;42.668;23.396;2023-05-17T06:42:43;12.43;;;10.10;;
8058;SDS011;4072;42.668;23.396;2023-05-17T06:45:11;14.87;;;11.67;;
8058;SDS011;4072;42.668;23.396;2023-05-17T06:47:39;12.80;;;10.70;;
8058;SDS011;4072;42.668;23.396;2023-05-17T06:50:07;14.27;;;9.57;;
8058;SDS011;4072;42.668;23.396;2023-05-17T06:52:36;14.93;;;11.37;;
8058;SDS011;4072;42.668;23.396;2023-05-17T06:55:06;13.40;;;10.53;;
8058;SDS011;4072;42.668;23.396;2023-05-17T06:57:34;14.00;;;10.63;;
8058;SDS011;4072;42.668;23.396;2023-05-17T07:00:03;18.50;;;12.03;;
8058;SDS011;4072;42.668;23.396;2023-05-17T07:02:36;13.90;;;10.70;;
8058;SDS011;4072;42.668;23.396;2023-05-17T07:05:04;14.50;;;10.63;;
8058;SDS011;4072;42.668;23.396;2023-05-17T07:07:33;16.43;;;10.60;;
8058;SDS011;4072;42.668;23.396;2023-05-17T07:10:01;17.17;;;10.97;;
8058;SDS011;4072;42.668;23.396;2023-05-17T07:12:31;18.07;;;11.37;;
8058;SDS011;4072;42.668;23.396;2023-05-17T07:15:00;15.57;;;11.30;;
8058;SDS011;4072;42.668;23.396;2023-05-17T07:17:28;13.83;;;11.30;;
8058;SDS011;4072;42.668;23.396;2023-05-17T07:19:56;13.90;;;10.77;;
8058;SDS011;4072;42.668;23.396;2023-05-17T07:22:24;15.23;;;10.50;;
8058;SDS011;4072;42.668;23.396;2023-05-17T07:24:52;16.63;;;11.17;;
8058;SDS011;4072;42.668;23.396;2023-05-17T07:27:20;15.23;;;12.03;;
8058;SDS011;4072;42.668;23.396;2023-05-17T07:29:49;14.10;;;10.97;;
8058;SDS011;4072;42.668;23.396;2023-05-17T07:32:18;16.20;;;10.63;;
8058;SDS011;4072;42.668;23.396;2023-05-17T07:34:46;16.17;;;11.87;;
8058;SDS011;4072;42.668;23.396;2023-05-17T07:37:14;16.37;;;11.40;;
8058;SDS011;4072;42.668;23.396;2023-05-17T07:39:42;18.97;;;12.57;;
8058;SDS011;4072;42.668;23.396;2023-05-17T07:42:10;17.67;;;13.07;;
8058;SDS011;4072;42.668;23.396;2023-05-17T07:44:38;19.07;;;14.23;;
8058;SDS011;4072;42.668;23.396;2023-05-17T07:47:08;16.23;;;12.73;;
8058;SDS011;4072;42.668;23.396;2023-05-17T07:49:36;16.93;;;13.73;;
8058;SDS011;4072;42.668;23.396;2023-05-17T07:52:04;19.17;;;13.73;;
8058;SDS011;4072;42.668;23.396;2023-05-17T07:54:32;18.83;;;13.20;;
8058;SDS011;4072;42.668;23.396;2023-05-17T07:57:00;17.27;;;12.90;;
8058;SDS011;4072;42.668;23.396;2023-05-17T07:59:28;25.07;;;13.07;;
8058;SDS011;4072;42.668;23.396;2023-05-17T08:01:56;18.47;;;13.70;;
8058;SDS011;4072;42.668;23.396;2023-05-17T08:04:25;18.73;;;13.30;;
8058;SDS011;4072;42.668;23.396;2023-05-17T08:06:54;17.07;;;12.73;;
8058;SDS011;4072;42.668;23.396;2023-05-17T08:09:22;16.70;;;12.00;;
8058;SDS011;4072;42.668;23.396;2023-05-17T08:11:49;17.63;;;10.47;;
8058;SDS011;4072;42.668;23.396;2023-05-17T08:14:21;15.93;;;11.93;;
8058;SDS011;4072;42.668;23.396;2023-05-17T08:16:49;20.23;;;13.60;;
8058;SDS011;4072;42.668;23.396;2023-05-17T08:19:17;17.40;;;14.33;;
8058;SDS011;4072;42.668;23.396;2023-05-17T08:21:47;19.77;;;13.33;;
8058;SDS011;4072;42.668;23.396;2023-05-17T08:24:15;24.23;;;14.33;;
8058;SDS011;4072;42.668;23.396;2023-05-17T08:26:44;19.33;;;13.17;;
8058;SDS011;4072;42.668;23.396;2023-05-17T08:29:12;21.47;;;13.60;;
8058;SDS011;4072;42.668;23.396;2023-05-17T08:31:40;15.07;;;12.63;;
8058;SDS011;4072;42.668;23.396;2023-05-17T08:34:09;17.47;;;12.43;;
8058;SDS011;4072;42.668;23.396;2023-05-17T08:36:37;14.17;;;11.03;;
8058;SDS011;4072;42.668;23.396;2023-05-17T08:39:06;17.93;;;12.80;;
8058;SDS011;4072;42.668;23.396;2023-05-17T08:41:35;14.63;;;11.73;;
8058;SDS011;4072;42.668;23.396;2023-05-17T08:44:03;15.73;;;12.00;;
8058;SDS011;4072;42.668;23.396;2023-05-17T08:46:32;18.67;;;13.77;;
8058;SDS011;4072;42.668;23.396;2023-05-17T08:49:02;19.77;;;13.37;;
8058;SDS011;4072;42.668;23.396;2023-05-17T08:51:33;26.07;;;13.07;;
8058;SDS011;4072;42.668;23.396;2023-05-17T08:54:04;17.93;;;11.77;;
8058;SDS011;4072;42.668;23.396;2023-05-17T08:56:35;17.80;;;9.10;;
8058;SDS011;4072;42.668;23.396;2023-05-17T08:59:05;14.53;;;11.30;;
8058;SDS011;4072;42.668;23.396;2023-05-17T09:01:36;13.40;;;7.90;;
8058;SDS011;4072;42.668;23.396;2023-05-17T09:04:05;15.67;;;10.20;;
8058;SDS011;4072;42.668;23.396;2023-05-17T09:06:36;16.37;;;11.57;;
8058;SDS011;4072;42.668;23.396;2023-05-17T09:09:04;15.33;;;10.80;;
8058;SDS011;4072;42.668;23.396;2023-05-17T09:11:35;18.13;;;11.57;;
8058;SDS011;4072;42.668;23.396;2023-05-17T09:14:04;15.13;;;10.03;;
8058;SDS011;4072;42.668;23.396;2023-05-17T09:16:34;16.30;;;10.23;;
8058;SDS011;4072;42.668;23.396;2023-05-17T09:19:04;15.53;;;9.77;;
8058;SDS011;4072;42.668;23.396;2023-05-17T09:21:35;17.00;;;11.53;;
8058;SDS011;4072;42.668;23.396;2023-05-17T09:24:03;12.40;;;8.67;;
8058;SDS011;4072;42.668;23.396;2023-05-17T09:26:38;15.17;;;9.77;;
8058;SDS011;4072;42.668;23.396;2023-05-17T09:29:07;19.13;;;13.57;;
8058;SDS011;4072;42.668;23.396;2023-05-17T09:31:37;16.23;;;11.70;;
8058;SDS011;4072;42.668;23.396;2023-05-17T09:34:06;17.13;;;11.97;;
8058;SDS011;4072;42.668;23.396;2023-05-17T09:36:35;16.23;;;10.43;;
8058;SDS011;4072;42.668;23.396;2023-05-17T09:39:04;17.67;;;11.00;;
8058;SDS011;4072;42.668;23.396;2023-05-17T09:41:42;16.57;;;10.83;;
8058;SDS011;4072;42.668;23.396;2023-05-17T09:44:13;12.97;;;9.27;;
8058;SDS011;4072;42.668;23.396;2023-05-17T09:46:41;12.30;;;8.30;;
8058;SDS011;4072;42.668;23.396;2023-05-17T09:49:11;13.07;;;8.40;;
8058;SDS011;4072;42.668;23.396;2023-05-17T09:51:40;14.40;;;8.73;;
8058;SDS011;4072;42.668;23.396;2023-05-17T09:54:09;13.13;;;9.30;;
8058;SDS011;4072;42.668;23.396;2023-05-17T09:56:38;16.23;;;8.37;;
8058;SDS011;4072;42.668;23.396;2023-05-17T09:59:11;9.67;;;6.40;;
8058;SDS011;4072;42.668;23.396;2023-05-17T10:01:41;11.23;;;7.77;;
8058;SDS011;4072;42.668;23.396;2023-05-17T10:04:11;14.10;;;8.07;;
8058;SDS011;4072;42.668;23.396;2023-05-17T10:06:45;11.63;;;7.57;;
8058;SDS011;4072;42.668;23.396;2023-05-17T10:09:20;12.50;;;7.30;;
8058;SDS011;4072;42.668;23.396;2023-05-17T10:11:49;13.57;;;7.70;;
8058;SDS011;4072;42.668;23.396;2023-05-17T10:14:22;14.23;;;8.47;;
8058;SDS011;4072;42.668;23.396;2023-05-17T10:16:53;13.57;;;8.00;;
8058;SDS011;4072;42.668;23.396;2023-05-17T10:19:21;11.23;;;6.93;;
8058;SDS011;4072;42.668;23.396;2023-05-17T10:21:51;14.50;;;8.10;;
8058;SDS011;4072;42.668;23.396;2023-05-17T10:24:20;13.83;;;7.87;;
8058;SDS011;4072;42.668;23.396;2023-05-17T10:26:49;13.87;;;7.57;;
8058;SDS011;4072;42.668;23.396;2023-05-17T10:29:18;11.67;;;7.80;;
8058;SDS011;4072;42.668;23.396;2023-05-17T10:31:48;12.33;;;8.53;;
8058;SDS011;4072;42.668;23.396;2023-05-17T10:34:17;15.43;;;7.87;;
8058;SDS011;4072;42.668;23.396;2023-05-17T10:36:46;10.10;;;7.73;;
8058;SDS011;4072;42.668;23.396;2023-05-17T10:39:16;16.40;;;8.60;;
8058;SDS011;4072;42.668;23.396;2023-05-17T10:41:45;15.47;;;8.00;;
8058;SDS011;4072;42.668;23.396;2023-05-17T10:44:17;13.33;;;8.33;;
8058;SDS011;4072;42.668;23.396;2023-05-17T10:46:53;10.43;;;7.90;;
8058;SDS011;4072;42.668;23.396;2023-05-17T10:49:23;15.67;;;8.83;;
8058;SDS011;4072;42.668;23.396;2023-05-17T10:51:55;13.00;;;8.60;;
8058;SDS011;4072;42.668;23.396;2023-05-17T10:54:32;16.93;;;8.23;;
8058;SDS011;4072;42.668;23.396;2023-05-17T10:57:03;12.87;;;7.73;;
8058;SDS011;4072;42.668;23.396;2023-05-17T10:59:34;13.80;;;7.73;;
8058;SDS011;4072;42.668;23.396;2023-05-17T11:02:04;11.13;;;7.97;;
8058;SDS011;4072;42.668;23.396;2023-05-17T11:04:34;14.43;;;8.37;;
8058;SDS011;4072;42.668;23.396;2023-05-17T11:07:20;16.63;;;8.97;;
8058;SDS011;4072;42.668;23.396;2023-05-17T11:09:53;11.30;;;7.23;;
8058;SDS011;4072;42.668;23.396;2023-05-17T11:12:27;13.83;;;8.33;;
8058;SDS011;4072;42.668;23.396;2023-05-17T11:14:59;12.87;;;8.97;;
8058;SDS011;4072;42.668;23.396;2023-05-17T11:17:33;13.17;;;9.23;;
8058;SDS011;4072;42.668;23.396;2023-05-17T11:20:04;16.60;;;9.33;;
8058;SDS011;4072;42.668;23.396;2023-05-17T11:22:39;16.50;;;10.33;;
8058;SDS011;4072;42.668;23.396;2023-05-17T11:25:09;14.43;;;9.70;;
8058;SDS011;4072;42.668;23.396;2023-05-17T11:27:45;15.87;;;9.30;;
8058;SDS011;4072;42.668;23.396;2023-05-17T11:30:15;16.97;;;9.30;;
8058;SDS011;4072;42.668;23.396;2023-05-17T11:32:49;15.80;;;9.57;;
8058;SDS011;4072;42.668;23.396;2023-05-17T11:35:22;14.47;;;9.73;;
8058;SDS011;4072;42.668;23.396;2023-05-17T11:37:51;12.50;;;9.10;;
8058;SDS011;4072;42.668;23.396;2023-05-17T11:40:23;16.67;;;9.23;;
8058;SDS011;4072;42.668;23.396;2023-05-17T11:43:13;10.83;;;8.40;;
8058;SDS011;4072;42.668;23.396;2023-05-17T11:45:43;13.77;;;8.27;;
8058;SDS011;4072;42.668;23.396;2023-05-17T11:48:15;11.70;;;7.47;;
8058;SDS011;4072;42.668;23.396;2023-05-17T11:50:45;11.47;;;8.00;;
8058;SDS011;4072;42.668;23.396;2023-05-17T11:53:15;12.03;;;8.20;;
8058;SDS011;4072;42.668;23.396;2023-05-17T11:55:44;13.67;;;7.77;;
8058;SDS011;4072;42.668;23.396;2023-05-17T11:58:14;17.47;;;8.20;;
8058;SDS011;4072;42.668;23.396;2023-05-17T12:00:44;12.27;;;8.10;;
8058;SDS011;4072;42.668;23.396;2023-05-17T12:03:20;11.40;;;7.03;;
8058;SDS011;4072;42.668;23.396;2023-05-17T12:05:50;11.63;;;7.87;;
8058;SDS011;4072;42.668;23.396;2023-05-17T12:08:27;11.27;;;7.93;;
8058;SDS011;4072;42.668;23.396;2023-05-17T12:10:57;15.53;;;8.57;;
8058;SDS011;4072;42.668;23.396;2023-05-17T12:13:26;14.00;;;7.97;;
8058;SDS011;4072;42.668;23.396;2023-05-17T12:15:56;12.00;;;6.47;;
8058;SDS011;4072;42.668;23.396;2023-05-17T12:18:34;9.17;;;6.70;;
8058;SDS011;4072;42.668;23.396;2023-05-17T12:21:04;13.17;;;6.40;;
8058;SDS011;4072;42.668;23.396;2023-05-17T12:23:34;10.77;;;6.50;;
8058;SDS011;4072;42.668;23.396;2023-05-17T12:26:06;11.60;;;7.73;;
8058;SDS011;4072;42.668;23.396;2023-05-17T12:28:36;11.70;;;7.60;;
8058;SDS011;4072;42.668;23.396;2023-05-17T12:31:06;12.30;;;8.57;;
8058;SDS011;4072;42.668;23.396;2023-05-17T12:33:39;9.30;;;7.33;;
8058;SDS011;4072;42.668;23.396;2023-05-17T12:36:09;12.27;;;9.40;;
8058;SDS011;4072;42.668;23.396;2023-05-17T12:38:39;11.83;;;8.43;;
8058;SDS011;4072;42.668;23.396;2023-05-17T12:41:08;14.70;;;8.67;;
8058;SDS011;4072;42.668;23.396;2023-05-17T12:43:38;9.77;;;7.77;;
8058;SDS011;4072;42.668;23.396;2023-05-17T12:46:07;10.57;;;7.70;;
8058;SDS011;4072;42.668;23.396;2023-05-17T12:48:37;13.67;;;8.67;;
8058;SDS011;4072;42.668;23.396;2023-05-17T12:51:09;11.53;;;7.50;;
8058;SDS011;4072;42.668;23.396;2023-05-17T12:53:37;19.17;;;8.20;;
8058;SDS011;4072;42.668;23.396;2023-05-17T12:56:07;10.10;;;7.43;;
8058;SDS011;4072;42.668;23.396;2023-05-17T12:58:40;9.17;;;7.53;;
8058;SDS011;4072;42.668;23.396;2023-05-17T13:01:08;11.03;;;8.13;;
8058;SDS011;4072;42.668;23.396;2023-05-17T13:03:41;11.70;;;7.43;;
8058;SDS011;4072;42.668;23.396;2023-05-17T13:06:16;11.73;;;7.17;;
8058;SDS011;4072;42.668;23.396;2023-05-17T13:08:44;11.83;;;7.73;;
8058;SDS011;4072;42.668;23.396;2023-05-17T13:11:25;12.17;;;7.77;;
8058;SDS011;4072;42.668;23.396;2023-05-17T13:13:53;13.70;;;7.73;;
8058;SDS011;4072;42.668;23.396;2023-05-17T13:16:27;11.83;;;8.73;;
8058;SDS011;4072;42.668;23.396;2023-05-17T13:18:56;11.13;;;7.97;;
8058;SDS011;4072;42.668;23.396;2023-05-17T13:21:25;9.47;;;7.13;;
8058;SDS011;4072;42.668;23.396;2023-05-17T13:23:53;12.90;;;8.30;;
8058;SDS011;4072;42.668;23.396;2023-05-17T13:26:21;10.80;;;8.30;;
8058;SDS011;4072;42.668;23.396;2023-05-17T13:28:49;9.53;;;7.33;;
8058;SDS011;4072;42.668;23.396;2023-05-17T13:31:17;12.37;;;7.30;;
8058;SDS011;4072;42.668;23.396;2023-05-17T13:33:45;8.73;;;6.73;;
8058;SDS011;4072;42.668;23.396;2023-05-17T13:36:17;9.80;;;7.03;;
8058;SDS011;4072;42.668;23.396;2023-05-17T13:38:45;10.70;;;6.63;;
8058;SDS011;4072;42.668;23.396;2023-05-17T13:41:13;8.23;;;6.40;;
8058;SDS011;4072;42.668;23.396;2023-05-17T13:43:41;8.17;;;5.60;;
8058;SDS011;4072;42.668;23.396;2023-05-17T13:46:09;7.93;;;5.67;;
8058;SDS011;4072;42.668;23.396;2023-05-17T13:48:37;10.17;;;6.73;;
8058;SDS011;4072;42.668;23.396;2023-05-17T13:51:08;11.80;;;6.67;;
8058;SDS011;4072;42.668;23.396;2023-05-17T13:53:37;10.07;;;5.97;;
8058;SDS011;4072;42.668;23.396;2023-05-17T13:56:06;8.83;;;5.80;;
8058;SDS011;4072;42.668;23.396;2023-05-17T13:58:34;10.30;;;6.23;;
8058;SDS011;4072;42.668;23.396;2023-05-17T14:01:03;9.90;;;5.80;;
8058;SDS011;4072;42.668;23.396;2023-05-17T14:03:31;9.80;;;5.53;;
8058;SDS011;4072;42.668;23.396;2023-05-17T14:06:01;11.90;;;5.57;;
8058;SDS011;4072;42.668;23.396;2023-05-17T14:08:33;12.67;;;5.70;;
8058;SDS011;4072;42.668;23.396;2023-05-17T14:11:02;9.63;;;5.30;;
8058;SDS011;4072;42.668;23.396;2023-05-17T14:13:30;7.97;;;5.30;;
8058;SDS011;4072;42.668;23.396;2023-05-17T14:15:58;7.90;;;5.63;;
8058;SDS011;4072;42.668;23.396;2023-05-17T14:18:27;7.83;;;5.60;;
8058;SDS011;4072;42.668;23.396;2023-05-17T14:20:56;9.37;;;4.87;;
8058;SDS011;4072;42.668;23.396;2023-05-17T14:23:26;9.83;;;4.93;;
8058;SDS011;4072;42.668;23.396;2023-05-17T14:25:54;7.10;;;4.90;;
8058;SDS011;4072;42.668;23.396;2023-05-17T14:28:24;7.13;;;4.77;;
8058;SDS011;4072;42.668;23.396;2023-05-17T14:30:52;7.07;;;4.50;;
8058;SDS011;4072;42.668;23.396;2023-05-17T14:33:20;7.27;;;4.70;;
8058;SDS011;4072;42.668;23.396;2023-05-17T14:35:48;5.87;;;4.67;;
8058;SDS011;4072;42.668;23.396;2023-05-17T14:38:16;7.03;;;4.63;;
8058;SDS011;4072;42.668;23.396;2023-05-17T14:40:45;5.77;;;4.10;;
8058;SDS011;4072;42.668;23.396;2023-05-17T14:43:13;6.27;;;4.40;;
8058;SDS011;4072;42.668;23.396;2023-05-17T14:45:43;9.27;;;4.77;;
8058;SDS011;4072;42.668;23.396;2023-05-17T14:48:11;7.40;;;4.33;;
8058;SDS011;4072;42.668;23.396;2023-05-17T14:50:39;5.27;;;4.10;;
8058;SDS011;4072;42.668;23.396;2023-05-17T14:53:07;7.83;;;4.27;;
8058;SDS011;4072;42.668;23.396;2023-05-17T14:55:35;6.07;;;4.50;;